createdAt,value
2023-04-15T00:02:23.486Z,115.78
2023-04-15T00:04:55.693Z,111.43
2023-04-15T00:07:30.756Z,110.80
2023-04-15T00:10:02.898Z,119.93
2023-04-15T00:12:35.401Z,127.13
2023-04-15T00:15:08.889Z,122.35
2023-04-15T00:17:41.630Z,124.35
2023-04-15T00:20:14.895Z,135.15
2023-04-15T00:22:49.977Z,131.07
2023-04-15T00:25:21.960Z,141.55
2023-04-15T00:27:54.182Z,132.32
2023-04-15T00:30:26.916Z,131.73
2023-04-15T00:32:59.270Z,141.45
2023-04-15T00:35:33.257Z,132.98
2023-04-15T00:38:10.039Z,121.78
2023-04-15T00:40:42.258Z,131.40
2023-04-15T00:43:14.616Z,129.75
2023-04-15T00:45:47.568Z,136.70
2023-04-15T00:48:20.118Z,142.65
2023-04-15T00:50:52.319Z,142.15
2023-04-15T00:53:27.379Z,131.73
2023-04-15T00:55:59.717Z,128.65
2023-04-15T00:58:32.580Z,137.77
2023-04-15T01:01:04.823Z,133.15
2023-04-15T01:03:37.357Z,142.40
2023-04-15T01:06:10.195Z,139.77
2023-04-15T01:08:45.810Z,140.13
2023-04-15T01:11:18.677Z,142.07
2023-04-15T01:13:51.616Z,135.50
2023-04-15T01:16:23.881Z,145.77
2023-04-15T01:18:56.519Z,132.50
2023-04-15T01:21:28.689Z,127.35
2023-04-15T01:24:05.037Z,136.18
2023-04-15T01:26:43.034Z,135.98
2023-04-15T01:29:17.917Z,135.43
2023-04-15T01:31:55.381Z,140.45
2023-04-15T01:34:27.733Z,135.52
2023-04-15T01:36:59.918Z,140.23
2023-04-15T01:39:32.335Z,149.10
2023-04-15T01:42:07.345Z,145.32
2023-04-15T01:44:39.778Z,146.48
2023-04-15T01:47:12.799Z,142.55
2023-04-15T01:49:45.330Z,140.57
2023-04-15T01:52:17.355Z,148.02
2023-04-15T01:54:50.007Z,144.02
2023-04-15T01:57:24.607Z,142.05
2023-04-15T01:59:57.086Z,149.25
2023-04-15T02:02:29.766Z,144.30
2023-04-15T02:05:02.447Z,146.27
2023-04-15T02:07:35.048Z,142.32
2023-04-15T02:10:08.070Z,145.60
2023-04-15T02:12:43.024Z,144.00
2023-04-15T02:15:15.862Z,141.07
2023-04-15T02:17:51.327Z,147.10
2023-04-15T02:20:24.273Z,136.70
2023-04-15T02:22:57.172Z,147.10
2023-04-15T02:25:29.308Z,142.38
2023-04-15T02:28:04.074Z,144.85
2023-04-15T02:30:36.325Z,146.98
2023-04-15T02:33:08.287Z,142.35
2023-04-15T02:35:44.544Z,142.85
2023-04-15T02:38:18.311Z,145.85
2023-04-15T02:40:50.684Z,146.77
2023-04-15T02:43:25.257Z,148.70
2023-04-15T02:45:57.428Z,148.35
2023-04-15T02:48:29.146Z,151.23
2023-04-15T02:51:15.777Z,133.88
2023-04-15T02:53:47.485Z,141.32
2023-04-15T02:56:20.243Z,144.90
2023-04-15T02:58:56.548Z,145.55
2023-04-15T03:01:28.893Z,144.27
2023-04-15T03:04:00.982Z,144.40
2023-04-15T03:06:33.300Z,135.77
2023-04-15T03:09:05.646Z,139.30
2023-04-15T03:11:41.097Z,143.45
2023-04-15T03:14:15.441Z,142.15
2023-04-15T03:16:47.461Z,141.32
2023-04-15T03:19:19.128Z,148.95
2023-04-15T03:21:51.178Z,148.10
2023-04-15T03:24:23.624Z,151.40
2023-04-15T03:27:02.399Z,143.98
2023-04-15T03:29:36.846Z,137.65
2023-04-15T03:32:09.022Z,134.45
2023-04-15T03:34:41.721Z,131.55
2023-04-15T03:37:13.780Z,133.10
2023-04-15T03:39:45.464Z,124.25
2023-04-15T03:42:17.398Z,126.25
2023-04-15T03:44:51.764Z,124.22
2023-04-15T03:47:23.943Z,120.22
2023-04-15T03:49:55.584Z,126.47
2023-04-15T03:52:27.692Z,116.18
2023-04-15T03:54:59.364Z,129.27
2023-04-15T03:57:31.565Z,115.40
2023-04-15T04:00:05.966Z,118.72
2023-04-15T04:02:38.205Z,114.82
2023-04-15T04:05:10.261Z,107.95
2023-04-15T04:07:42.420Z,111.70
2023-04-15T04:10:14.676Z,103.07
2023-04-15T04:12:46.804Z,105.00
2023-04-15T04:15:21.820Z,102.95
2023-04-15T04:17:54.160Z,101.40
2023-04-15T04:20:26.245Z,98.80
2023-04-15T04:22:58.536Z,99.43
2023-04-15T04:25:30.591Z,97.63
2023-04-15T04:28:02.938Z,95.32
2023-04-15T04:30:38.903Z,90.40
2023-04-15T04:33:11.440Z,95.43
2023-04-15T04:35:43.642Z,88.90
2023-04-15T04:38:16.181Z,92.80
2023-04-15T04:40:48.162Z,87.75
2023-04-15T04:43:20.539Z,89.03
2023-04-15T04:45:55.310Z,83.68
2023-04-15T04:48:27.679Z,83.47
2023-04-15T04:50:59.719Z,79.18
2023-04-15T04:53:32.242Z,79.05
2023-04-15T04:56:04.198Z,69.03
2023-04-15T04:58:36.676Z,74.63
2023-04-15T05:01:11.329Z,77.05
2023-04-15T05:03:44.193Z,78.35
2023-04-15T05:06:16.338Z,69.75
2023-04-15T05:08:48.776Z,75.60
2023-04-15T05:11:20.849Z,77.15
2023-04-15T05:13:53.260Z,73.47
2023-04-15T05:16:27.983Z,66.97
2023-04-15T05:19:00.621Z,69.28
2023-04-15T05:21:33.220Z,72.88
2023-04-15T05:24:05.679Z,67.30
2023-04-15T05:26:37.633Z,70.55
2023-04-15T05:29:10.003Z,67.57
2023-04-15T05:31:44.862Z,65.63
2023-04-15T05:34:17.890Z,71.38
2023-04-15T05:36:49.917Z,59.50
2023-04-15T05:39:22.398Z,62.28
2023-04-15T05:41:54.520Z,62.70
2023-04-15T05:44:27.476Z,61.03
2023-04-15T05:47:03.903Z,57.78
2023-04-15T05:49:36.501Z,57.00
2023-04-15T05:52:08.840Z,46.70
2023-04-15T05:54:41.443Z,51.40
2023-04-15T05:57:13.459Z,51.70
2023-04-15T05:59:45.568Z,46.28
2023-04-15T06:02:20.107Z,47.65
2023-04-15T06:04:52.707Z,45.78
2023-04-15T06:07:24.370Z,46.38
2023-04-15T06:09:56.361Z,45.05
2023-04-15T06:12:29.142Z,42.95
2023-04-15T06:15:01.265Z,36.88
2023-04-15T06:17:35.581Z,40.38
2023-04-15T06:20:08.875Z,44.72
2023-04-15T06:22:41.581Z,42.40
2023-04-15T06:25:13.844Z,48.08
2023-04-15T06:27:45.562Z,40.90
2023-04-15T06:30:17.693Z,39.75
2023-04-15T06:32:52.180Z,40.35
2023-04-15T06:35:24.386Z,34.50
2023-04-15T06:37:56.109Z,36.38
2023-04-15T06:40:28.502Z,40.05
2023-04-15T06:43:00.216Z,34.15
2023-04-15T06:45:32.792Z,30.13
2023-04-15T06:48:07.682Z,33.72
2023-04-15T06:50:39.806Z,29.95
2023-04-15T06:53:11.830Z,29.40
2023-04-15T06:55:43.940Z,30.88
2023-04-15T06:58:15.710Z,26.08
2023-04-15T07:00:48.241Z,27.77
2023-04-15T07:03:22.878Z,22.45
2023-04-15T07:05:55.043Z,22.08
2023-04-15T07:08:26.918Z,24.52
2023-04-15T07:10:59.021Z,21.88
2023-04-15T07:13:34.087Z,27.05
2023-04-15T07:16:10.135Z,23.75
2023-04-15T07:18:44.577Z,23.92
2023-04-15T07:21:16.657Z,22.90
2023-04-15T07:23:48.347Z,22.20
2023-04-15T07:26:20.521Z,24.23
2023-04-15T07:28:52.696Z,25.17
2023-04-15T07:31:24.765Z,26.98
2023-04-15T07:33:59.065Z,24.80
2023-04-15T07:36:31.316Z,23.90
2023-04-15T07:39:04.434Z,24.58
2023-04-15T07:41:36.808Z,25.40
2023-04-15T07:44:08.945Z,27.15
2023-04-15T07:46:41.066Z,30.58
2023-04-15T07:49:16.142Z,31.30
2023-04-15T07:51:48.363Z,26.05
2023-04-15T07:54:20.199Z,26.27
2023-04-15T07:56:52.284Z,25.05
2023-04-15T07:59:24.324Z,29.25
2023-04-15T08:01:56.786Z,27.33
2023-04-15T08:04:31.718Z,29.52
2023-04-15T08:07:04.318Z,26.73
2023-04-15T08:09:36.465Z,28.27
2023-04-15T08:12:12.802Z,26.38
2023-04-15T08:14:46.638Z,27.70
2023-04-15T08:17:20.668Z,25.35
2023-04-15T08:19:55.325Z,28.13
2023-04-15T08:22:27.958Z,28.73
2023-04-15T08:24:59.989Z,28.60
2023-04-15T08:27:33.719Z,28.27
2023-04-15T08:30:05.897Z,29.85
2023-04-15T08:32:38.359Z,28.27
2023-04-15T08:35:13.405Z,28.65
2023-04-15T08:37:45.897Z,28.27
2023-04-15T08:40:17.905Z,32.30
2023-04-15T08:42:56.421Z,32.20
2023-04-15T08:45:28.961Z,30.70
2023-04-15T08:48:02.588Z,28.42
2023-04-15T08:50:38.386Z,29.38
2023-04-15T08:53:11.038Z,32.40
2023-04-15T08:55:46.842Z,29.88
2023-04-15T08:58:20.082Z,29.98
2023-04-15T09:00:52.373Z,33.30
2023-04-15T09:03:25.224Z,30.80
2023-04-15T09:06:00.950Z,28.33
2023-04-15T09:08:33.302Z,29.55
2023-04-15T09:11:06.203Z,30.73
2023-04-15T09:13:38.590Z,29.23
2023-04-15T09:16:11.445Z,32.63
2023-04-15T09:18:44.129Z,32.50
2023-04-15T09:21:21.204Z,28.90
2023-04-15T09:24:02.313Z,30.33
2023-04-15T09:26:36.147Z,28.30
2023-04-15T09:29:10.100Z,28.27
2023-04-15T09:31:41.880Z,28.08
2023-04-15T09:34:13.998Z,28.70
2023-04-15T09:37:03.168Z,28.77
2023-04-15T09:39:52.513Z,30.02
2023-04-15T09:42:25.539Z,31.75
2023-04-15T09:44:57.717Z,30.20
2023-04-15T09:47:33.451Z,28.13
2023-04-15T09:50:05.776Z,30.15
2023-04-15T09:52:46.518Z,28.75
2023-04-15T09:55:21.507Z,29.80
2023-04-15T09:57:53.236Z,24.00
2023-04-15T10:00:25.586Z,27.70
2023-04-15T10:02:57.427Z,28.63
2023-04-15T10:05:31.333Z,24.77
2023-04-15T10:08:06.400Z,25.92
2023-04-15T10:10:39.348Z,29.27
2023-04-15T10:13:12.060Z,29.65
2023-04-15T10:15:47.732Z,25.83
2023-04-15T10:18:22.586Z,32.60
2023-04-15T10:20:55.185Z,30.23
2023-04-15T10:23:29.975Z,29.98
2023-04-15T10:26:16.088Z,31.73
2023-04-15T10:28:49.798Z,33.35
2023-04-15T10:31:23.333Z,28.42
2023-04-15T10:33:56.721Z,32.20
2023-04-15T10:36:29.638Z,27.33
2023-04-15T10:39:04.261Z,27.80
2023-04-15T10:41:36.801Z,28.85
2023-04-15T10:44:08.947Z,32.17
2023-04-15T10:46:43.123Z,28.70
2023-04-15T10:49:16.214Z,30.90
2023-04-15T10:51:55.460Z,31.65
2023-04-15T10:54:39.360Z,30.48
2023-04-15T10:57:22.261Z,29.27
2023-04-15T11:00:17.843Z,28.15
2023-04-15T11:02:51.838Z,32.08
2023-04-15T11:05:53.272Z,29.05
2023-04-15T11:08:59.453Z,32.00
2023-04-15T11:12:00.959Z,27.98
2023-04-15T11:14:37.252Z,28.33
2023-04-15T11:17:08.934Z,26.80
2023-04-15T11:19:41.656Z,30.23
2023-04-15T11:22:14.517Z,28.45
2023-04-15T11:24:52.356Z,25.58
2023-04-15T11:27:25.438Z,26.77
2023-04-15T11:30:00.522Z,26.20
2023-04-15T11:32:33.058Z,28.25
2023-04-15T11:35:05.616Z,27.50
2023-04-15T11:37:37.754Z,27.17
2023-04-15T11:40:12.155Z,28.80
2023-04-15T11:42:49.705Z,30.10
2023-04-15T11:45:25.399Z,30.42
2023-04-15T11:47:57.439Z,28.33
2023-04-15T11:50:29.779Z,28.83
2023-04-15T11:53:03.358Z,28.58
2023-04-15T11:55:46.720Z,28.40
2023-04-15T11:58:20.920Z,26.25
2023-04-15T12:00:58.115Z,27.38
2023-04-15T12:03:31.886Z,27.75
2023-04-15T12:06:19.836Z,29.58
2023-04-15T12:09:06.954Z,26.45
2023-04-15T12:11:43.882Z,28.13
2023-04-15T12:14:24.922Z,31.60
2023-04-15T12:17:02.419Z,33.10
2023-04-15T12:19:38.983Z,30.40
2023-04-15T12:22:13.785Z,33.08
2023-04-15T12:24:49.400Z,31.10
2023-04-15T12:27:21.496Z,31.48
2023-04-15T12:29:53.235Z,27.15
2023-04-15T12:32:28.074Z,29.77
2023-04-15T12:34:59.998Z,32.22
2023-04-15T12:37:32.119Z,31.60
2023-04-15T12:40:03.899Z,31.90
2023-04-15T12:42:36.202Z,32.85
2023-04-15T12:45:08.861Z,28.38
2023-04-15T12:47:43.594Z,26.48
2023-04-15T12:50:15.304Z,27.27
2023-04-15T12:52:47.344Z,29.35
2023-04-15T12:55:19.242Z,24.98
2023-04-15T12:57:51.439Z,24.60
2023-04-15T13:00:23.491Z,23.80
2023-04-15T13:02:58.321Z,20.83
2023-04-15T13:05:30.182Z,22.17
2023-04-15T13:08:02.582Z,24.00
2023-04-15T13:10:34.426Z,27.35
2023-04-15T13:13:06.785Z,25.27
2023-04-15T13:15:38.781Z,26.75
2023-04-15T13:18:13.499Z,25.75
2023-04-15T13:20:45.340Z,23.48
2023-04-15T13:23:17.863Z,26.15
2023-04-15T13:25:49.562Z,23.73
2023-04-15T13:28:21.820Z,21.75
2023-04-15T13:30:53.561Z,21.67
2023-04-15T13:33:28.389Z,20.88
2023-04-15T13:36:00.629Z,22.05
2023-04-15T13:38:33.201Z,22.05
2023-04-15T13:41:05.312Z,21.00
2023-04-15T13:43:38.090Z,18.75
2023-04-15T13:46:12.109Z,17.33
2023-04-15T13:48:47.305Z,16.88
2023-04-15T13:51:22.543Z,18.75
2023-04-15T13:53:54.841Z,20.75
2023-04-15T13:56:27.204Z,20.90
2023-04-15T13:59:02.389Z,21.38
2023-04-15T14:01:35.152Z,20.52
2023-04-15T14:04:11.614Z,17.67
2023-04-15T14:06:44.768Z,18.10
2023-04-15T14:09:18.929Z,18.52
2023-04-15T14:11:52.297Z,22.08
2023-04-15T14:14:25.808Z,19.05
2023-04-15T14:16:59.846Z,19.58
2023-04-15T14:19:38.836Z,20.35
2023-04-15T14:22:12.038Z,21.33
2023-04-15T14:24:45.644Z,17.63
2023-04-15T14:27:18.805Z,19.70
2023-04-15T14:29:55.250Z,17.65
2023-04-15T14:32:29.729Z,18.73
2023-04-15T14:35:05.700Z,19.73
2023-04-15T14:37:48.957Z,16.70
2023-04-15T14:40:25.442Z,15.88
2023-04-15T14:42:58.683Z,22.40
2023-04-15T14:45:32.375Z,19.48
2023-04-15T14:48:12.745Z,21.50
2023-04-15T14:50:56.129Z,17.77
2023-04-15T14:53:34.084Z,19.88
2023-04-15T14:56:08.289Z,21.55
2023-04-15T14:58:41.852Z,17.52
2023-04-15T15:01:17.849Z,16.48
2023-04-15T15:03:53.216Z,19.73
2023-04-15T15:06:30.150Z,21.80
2023-04-15T15:09:03.912Z,20.75
2023-04-15T15:11:38.086Z,20.58
2023-04-15T15:14:11.133Z,19.73
2023-04-15T15:16:44.677Z,20.27
2023-04-15T15:19:18.324Z,23.30
2023-04-15T15:21:55.369Z,25.27
2023-04-15T15:24:30.193Z,26.13
2023-04-15T15:27:04.045Z,29.90
2023-04-15T15:30:08.015Z,26.73
2023-04-15T15:32:43.219Z,21.13
2023-04-15T15:35:15.853Z,20.23
2023-04-15T15:37:55.447Z,21.75
2023-04-15T15:40:28.162Z,22.67
2023-04-15T15:43:00.713Z,25.58
2023-04-15T15:46:16.557Z,24.20
2023-04-15T15:49:17.349Z,23.83
2023-04-15T15:51:50.272Z,26.45
2023-04-15T15:54:25.441Z,25.77
2023-04-15T15:56:58.052Z,24.05
2023-04-15T15:59:33.506Z,25.05
2023-04-15T16:02:06.396Z,23.48
2023-04-15T16:04:43.754Z,25.77
2023-04-15T16:07:16.278Z,21.10
2023-04-15T16:09:51.348Z,22.45
2023-04-15T16:12:23.757Z,19.80
2023-04-15T16:14:56.137Z,23.58
2023-04-15T16:17:28.565Z,21.77
2023-04-15T16:20:05.868Z,19.88
2023-04-15T16:22:38.659Z,19.30
2023-04-15T16:25:13.996Z,17.75
2023-04-15T16:27:58.886Z,19.55
2023-04-15T16:30:34.287Z,17.38
2023-04-15T16:33:06.881Z,18.23
2023-04-15T16:35:39.727Z,15.45
2023-04-15T16:38:12.318Z,15.93
2023-04-15T16:40:47.499Z,16.45
2023-04-15T16:43:19.646Z,15.77
2023-04-15T16:45:53.057Z,14.48
2023-04-15T16:48:25.580Z,18.92
2023-04-15T16:50:58.205Z,14.48
2023-04-15T16:53:30.618Z,15.50
2023-04-15T16:56:06.235Z,16.38
2023-04-15T16:58:38.831Z,15.35
2023-04-15T17:01:12.453Z,16.13
2023-04-15T17:03:46.523Z,13.52
2023-04-15T17:06:19.419Z,13.48
2023-04-15T17:08:57.905Z,14.85
2023-04-15T17:11:45.907Z,14.93
2023-04-15T17:14:18.497Z,14.73
2023-04-15T17:16:50.896Z,16.70
2023-04-15T17:19:23.801Z,15.45
2023-04-15T17:21:58.663Z,16.42
2023-04-15T17:24:30.976Z,15.85
2023-04-15T17:27:08.771Z,16.52
2023-04-15T17:29:44.115Z,16.48
2023-04-15T17:32:17.232Z,16.02
2023-04-15T17:34:51.308Z,16.75
2023-04-15T17:37:24.456Z,17.83
2023-04-15T17:39:56.919Z,16.23
2023-04-15T17:42:32.497Z,15.02
2023-04-15T17:45:06.166Z,16.85
2023-04-15T17:47:40.909Z,15.23
2023-04-15T17:50:14.713Z,17.00
2023-04-15T17:52:48.898Z,17.13
2023-04-15T17:55:22.647Z,18.30
2023-04-15T17:57:58.066Z,18.50
2023-04-15T18:00:30.319Z,18.27
2023-04-15T18:03:03.546Z,21.48
2023-04-15T18:05:35.765Z,22.33
2023-04-15T18:08:09.479Z,21.27
2023-04-15T18:10:45.094Z,22.00
2023-04-15T18:13:20.145Z,24.08
2023-04-15T18:15:55.670Z,22.55
2023-04-15T18:18:30.655Z,24.73
2023-04-15T18:21:03.065Z,23.25
2023-04-15T18:23:35.559Z,25.98
2023-04-15T18:26:32.995Z,22.77
2023-04-15T18:29:18.898Z,25.25
2023-04-15T18:31:51.170Z,26.85
2023-04-15T18:34:23.978Z,27.17
2023-04-15T18:36:56.343Z,28.33
2023-04-15T18:39:30.125Z,26.20
2023-04-15T18:42:02.349Z,26.23
2023-04-15T18:44:37.662Z,24.33
2023-04-15T18:47:09.689Z,25.17
2023-04-15T18:49:42.158Z,24.40
2023-04-15T18:52:15.482Z,27.67
2023-04-15T18:54:48.419Z,25.75
2023-04-15T18:57:28.660Z,25.60
2023-04-15T19:00:11.730Z,25.17
2023-04-15T19:02:44.658Z,26.98
2023-04-15T19:05:17.663Z,28.95
2023-04-15T19:07:49.923Z,27.02
2023-04-15T19:10:23.799Z,29.17
2023-04-15T19:12:55.925Z,26.92
2023-04-15T19:15:31.508Z,26.17
2023-04-15T19:18:10.999Z,26.60
2023-04-15T19:20:43.860Z,27.10
2023-04-15T19:23:15.939Z,27.08
2023-04-15T19:25:48.520Z,29.05
2023-04-15T19:28:20.598Z,24.77
2023-04-15T19:30:55.988Z,27.23
2023-04-15T19:33:31.889Z,27.42
2023-04-15T19:36:12.544Z,32.47
2023-04-15T19:38:45.030Z,37.60
2023-04-15T19:44:06.491Z,38.08
2023-04-15T19:46:44.168Z,41.17
2023-04-15T19:49:17.080Z,45.70
2023-04-15T19:51:51.230Z,45.67
2023-04-15T19:54:23.600Z,47.03
2023-04-15T19:56:56.962Z,55.20
2023-04-15T19:59:29.305Z,54.47
2023-04-15T20:02:04.736Z,53.67
2023-04-15T20:04:40.954Z,48.33
2023-04-15T20:07:14.489Z,55.28
2023-04-15T20:09:50.782Z,52.97
2023-04-15T20:12:49.773Z,53.05
2023-04-15T20:15:16.437Z,51.20
2023-04-15T20:17:52.305Z,49.50
2023-04-15T20:20:25.587Z,52.08
2023-04-15T20:22:58.489Z,51.28
2023-04-15T20:25:30.833Z,51.42
2023-04-15T20:28:04.967Z,49.80
2023-04-15T20:30:38.682Z,47.20
2023-04-15T20:33:14.163Z,46.47
2023-04-15T20:35:47.019Z,49.80
2023-04-15T20:38:19.982Z,49.50
2023-04-15T20:40:52.542Z,48.60
2023-04-15T20:43:26.235Z,49.85
2023-04-15T20:46:04.392Z,50.30
2023-04-15T20:48:49.060Z,51.00
2023-04-15T20:51:21.498Z,51.78
2023-04-15T20:53:54.020Z,48.63
2023-04-15T20:56:26.390Z,44.75
2023-04-15T20:58:58.900Z,49.25
2023-04-15T21:01:31.070Z,52.45
2023-04-15T21:04:06.425Z,50.33
2023-04-15T21:06:38.851Z,49.72
2023-04-15T21:09:11.128Z,49.00
2023-04-15T21:11:59.684Z,49.33
2023-04-15T21:14:35.340Z,51.58
2023-04-15T21:17:11.376Z,48.47
2023-04-15T21:19:51.204Z,49.05
2023-04-15T21:22:23.325Z,47.42
2023-04-15T21:24:56.052Z,53.38
2023-04-15T21:27:29.265Z,48.53
2023-04-15T21:30:06.229Z,47.58
2023-04-15T21:32:38.411Z,49.40
2023-04-15T21:35:13.940Z,53.38
2023-04-15T21:37:46.081Z,48.85
2023-04-15T21:40:19.818Z,46.28
2023-04-15T21:42:53.223Z,46.70
2023-04-15T21:45:25.541Z,47.25
2023-04-15T21:48:07.234Z,48.72
2023-04-15T21:50:43.947Z,46.45
2023-04-15T21:53:16.140Z,51.13
2023-04-15T21:55:48.656Z,47.90
2023-04-15T21:58:20.740Z,43.53
2023-04-15T22:00:53.298Z,49.80
2023-04-15T22:03:25.572Z,50.22
2023-04-15T22:06:00.656Z,43.53
2023-04-15T22:08:38.644Z,47.53
2023-04-15T22:11:27.696Z,46.83
2023-04-15T22:14:01.187Z,45.70
2023-04-15T22:16:33.720Z,42.28
2023-04-15T22:19:06.210Z,45.60
2023-04-15T22:21:41.699Z,48.17
2023-04-15T22:24:33.159Z,79.10
2023-04-15T22:27:06.600Z,45.45
2023-04-15T22:29:38.827Z,47.13
2023-04-15T22:32:11.281Z,46.60
2023-04-15T22:34:43.479Z,51.22
2023-04-15T22:37:22.260Z,50.72
2023-04-15T22:39:55.317Z,53.08
2023-04-15T22:42:30.789Z,52.35
2023-04-15T22:48:49.310Z,54.17
2023-04-15T22:51:27.352Z,52.63
2023-04-15T22:54:02.486Z,56.60
2023-04-15T22:56:34.522Z,55.55
2023-04-15T22:59:10.021Z,58.88
2023-04-15T23:01:42.279Z,57.03
2023-04-15T23:04:25.684Z,61.17
2023-04-15T23:06:59.396Z,65.45
2023-04-15T23:09:34.563Z,67.95
2023-04-15T23:12:06.693Z,69.50
2023-04-15T23:15:02.420Z,65.47
2023-04-15T23:17:35.187Z,69.10
2023-04-15T23:20:08.571Z,69.47
2023-04-15T23:22:42.341Z,61.88
2023-04-15T23:25:18.308Z,66.05
2023-04-15T23:27:49.741Z,64.63
2023-04-15T23:30:21.787Z,67.25
2023-04-15T23:32:53.689Z,71.60
2023-04-15T23:35:25.780Z,72.60
2023-04-15T23:37:57.429Z,75.97
2023-04-15T23:40:52.277Z,73.55
2023-04-15T23:43:23.955Z,73.55
2023-04-15T23:45:55.904Z,69.85
2023-04-15T23:48:33.604Z,71.63
2023-04-15T23:51:24.894Z,73.55
2023-04-15T23:53:56.984Z,66.75
2023-04-15T23:56:32.712Z,69.10
2023-04-15T23:59:04.265Z,78.13
